createdAt,value
2022-08-03T05:31:40.612Z,2.42
2022-08-03T05:34:08.743Z,1.85
2022-08-03T05:36:36.473Z,2.60
2022-08-03T05:39:04.144Z,2.53
2022-08-03T05:41:36.626Z,1.75
2022-08-03T05:44:05.244Z,1.90
2022-08-03T05:46:32.760Z,2.10
2022-08-03T05:49:00.249Z,2.10
2022-08-03T05:51:28.877Z,1.65
2022-08-03T05:53:56.069Z,1.58
2022-08-03T05:56:25.216Z,1.98
2022-08-03T05:58:52.989Z,2.80
2022-08-03T06:01:22.623Z,1.42
2022-08-03T06:03:51.997Z,1.80
2022-08-03T06:06:19.633Z,1.38
2022-08-03T06:08:48.709Z,1.70
2022-08-03T06:11:16.594Z,1.52
2022-08-03T06:13:44.344Z,1.77
2022-08-03T06:16:11.709Z,1.60
2022-08-03T06:18:40.427Z,1.83
2022-08-03T06:21:14.124Z,1.92
2022-08-03T06:23:52.893Z,2.08
2022-08-03T06:26:21.360Z,1.50
2022-08-03T06:28:51.535Z,1.35
2022-08-03T06:31:24.186Z,2.17
2022-08-03T06:34:33.905Z,1.70
2022-08-03T06:36:39.756Z,2.45
2022-08-03T06:39:08.294Z,1.83
2022-08-03T06:41:37.241Z,1.67
2022-08-03T06:44:05.805Z,1.50
2022-08-03T06:46:32.952Z,1.05
2022-08-03T06:49:00.169Z,1.30
2022-08-03T06:52:03.347Z,1.20
2022-08-03T06:54:14.476Z,1.42
2022-08-03T06:56:41.755Z,1.30
2022-08-03T06:59:08.909Z,1.52
2022-08-03T07:01:56.286Z,1.40
2022-08-03T07:04:23.990Z,1.85
2022-08-03T07:06:51.038Z,1.35
2022-08-03T07:09:18.215Z,1.00
2022-08-03T07:11:45.809Z,0.80
2022-08-03T07:14:13.085Z,0.75
2022-08-03T07:16:40.233Z,0.90
2022-08-03T07:19:07.442Z,0.90
2022-08-03T07:21:35.018Z,0.70
2022-08-03T07:24:02.070Z,0.70
2022-08-03T07:26:29.439Z,1.27
2022-08-03T07:28:56.616Z,1.05
2022-08-03T07:31:23.819Z,0.60
2022-08-03T07:33:50.999Z,0.75
2022-08-03T07:36:18.172Z,0.57
2022-08-03T07:38:45.453Z,0.63
2022-08-03T07:41:12.654Z,0.73
2022-08-03T07:43:39.832Z,0.50
2022-08-03T07:46:07.028Z,0.75
2022-08-03T07:48:36.519Z,0.75
2022-08-03T07:51:05.641Z,0.80
2022-08-03T07:53:32.826Z,0.80
2022-08-03T07:56:05.727Z,0.80
2022-08-03T07:58:38.420Z,0.70
2022-08-03T08:01:05.987Z,0.70
2022-08-03T08:03:52.968Z,0.88
2022-08-03T08:06:21.655Z,0.40
2022-08-03T08:08:49.267Z,1.00
2022-08-03T08:11:16.787Z,0.80
2022-08-03T08:13:43.854Z,0.68
2022-08-03T08:16:11.522Z,0.60
2022-08-03T08:18:38.861Z,0.50
2022-08-03T08:21:06.084Z,0.70
2022-08-03T08:23:41.936Z,0.80
2022-08-03T08:26:10.992Z,0.70
2022-08-03T08:28:38.614Z,1.17
2022-08-03T08:31:05.971Z,0.80
2022-08-03T08:34:02.771Z,0.80
2022-08-03T08:36:21.996Z,0.82
2022-08-03T08:38:49.150Z,0.60
2022-08-03T08:41:17.295Z,0.90
2022-08-03T08:43:44.527Z,0.60
2022-08-03T08:46:23.434Z,0.90
2022-08-03T08:48:53.341Z,1.20
2022-08-03T08:51:22.477Z,0.98
2022-08-03T08:53:53.923Z,0.90
2022-08-03T08:56:25.360Z,1.08
2022-08-03T08:58:56.926Z,0.70
2022-08-03T09:01:24.588Z,1.20
2022-08-03T09:03:53.484Z,1.00
2022-08-03T09:06:21.604Z,1.20
2022-08-03T09:08:48.952Z,1.02
2022-08-03T09:11:16.443Z,0.80
2022-08-03T09:13:43.905Z,0.82
2022-08-03T09:16:18.508Z,0.90
2022-08-03T09:18:49.556Z,0.80
2022-08-03T09:21:33.312Z,1.05
2022-08-03T09:24:05.388Z,1.05
2022-08-03T09:26:36.562Z,0.90
2022-08-03T09:29:13.999Z,1.00
2022-08-03T09:31:45.184Z,0.90
2022-08-03T09:34:15.042Z,0.70
2022-08-03T09:36:48.693Z,0.90
2022-08-03T09:39:18.670Z,0.50
2022-08-03T09:41:49.594Z,0.90
2022-08-03T09:44:25.643Z,0.70
2022-08-03T09:46:56.224Z,0.68
2022-08-03T09:49:24.829Z,0.88
2022-08-03T09:52:37.967Z,0.80
2022-08-03T09:54:41.471Z,1.00
2022-08-03T09:57:20.713Z,0.63
2022-08-03T09:59:48.196Z,0.75
2022-08-03T10:02:26.363Z,0.90
2022-08-03T10:04:54.333Z,0.65
2022-08-03T10:07:23.121Z,1.02
2022-08-03T10:09:57.257Z,0.80
2022-08-03T10:12:25.106Z,0.80
2022-08-03T10:14:53.035Z,0.82
2022-08-03T10:17:21.222Z,0.80
2022-08-03T10:19:49.457Z,1.08
2022-08-03T10:22:21.799Z,0.70
2022-08-03T10:24:56.339Z,0.75
2022-08-03T10:27:25.024Z,0.90
2022-08-03T10:29:55.625Z,1.10
2022-08-03T10:32:30.195Z,1.20
2022-08-03T10:35:19.719Z,0.88
2022-08-03T10:37:57.306Z,1.00
2022-08-03T10:40:49.457Z,0.73
2022-08-03T10:43:33.818Z,0.93
2022-08-03T10:46:03.365Z,1.15
2022-08-03T10:48:31.361Z,1.00
2022-08-03T10:50:58.919Z,0.80
2022-08-03T10:53:54.229Z,0.85
2022-08-03T10:57:08.787Z,1.02
2022-08-03T11:03:02.486Z,0.65
2022-08-03T11:05:32.382Z,0.73
2022-08-03T11:08:20.559Z,0.80
2022-08-03T11:10:49.008Z,0.80
2022-08-03T11:13:18.800Z,0.70
2022-08-03T11:15:47.722Z,0.85
2022-08-03T11:18:15.696Z,1.40
2022-08-03T11:20:47.503Z,0.90
2022-08-03T11:23:16.856Z,0.98
2022-08-03T11:26:12.021Z,0.80
2022-08-03T11:28:40.990Z,0.90
2022-08-03T11:34:16.373Z,0.60
2022-08-03T11:37:24.642Z,0.75
2022-08-03T11:39:55.381Z,0.70
2022-08-03T11:45:00.953Z,0.90
2022-08-03T11:47:29.881Z,0.50
2022-08-03T11:50:01.861Z,0.93
2022-08-03T11:52:36.512Z,0.90
2022-08-03T11:55:09.708Z,0.98
2022-08-03T11:59:13.241Z,0.60
2022-08-03T12:00:32.722Z,0.73
2022-08-03T12:03:06.189Z,0.80
2022-08-03T12:05:35.381Z,1.05
2022-08-03T12:08:06.342Z,1.15
2022-08-03T12:10:34.747Z,0.77
2022-08-03T12:13:05.882Z,0.80
2022-08-03T12:15:56.775Z,1.02
2022-08-03T12:18:24.734Z,1.25
2022-08-03T12:20:53.259Z,0.82
2022-08-03T12:23:20.929Z,1.00
2022-08-03T12:25:49.527Z,0.82
2022-08-03T12:28:35.999Z,1.02
2022-08-03T12:31:07.815Z,1.10
2022-08-03T12:36:35.794Z,0.75
2022-08-03T12:39:06.368Z,0.80
2022-08-03T12:41:37.138Z,0.70
2022-08-03T12:44:06.010Z,1.20
2022-08-03T12:46:37.458Z,0.85
2022-08-03T12:49:11.674Z,0.90
2022-08-03T12:51:58.108Z,1.35
2022-08-03T12:54:28.185Z,1.10
2022-08-03T12:57:05.995Z,0.77
2022-08-03T12:59:40.637Z,0.82
2022-08-03T13:02:23.469Z,1.08
2022-08-03T13:04:52.832Z,1.10
2022-08-03T13:07:21.249Z,1.05
2022-08-03T13:09:53.000Z,1.00
2022-08-03T13:12:22.971Z,1.20
2022-08-03T13:14:53.273Z,0.90
2022-08-03T13:17:21.383Z,0.98
2022-08-03T13:19:49.656Z,0.90
2022-08-03T13:22:22.192Z,0.93
2022-08-03T13:24:52.418Z,1.00
2022-08-03T13:28:02.087Z,1.10
2022-08-03T13:30:09.013Z,0.70
2022-08-03T13:32:36.590Z,1.02
2022-08-03T13:35:04.489Z,0.90
2022-08-03T13:37:32.541Z,1.08
2022-08-03T13:40:02.852Z,1.00
2022-08-03T13:42:33.380Z,1.00
2022-08-03T13:45:01.587Z,0.68
2022-08-03T13:47:29.232Z,0.85
2022-08-03T13:50:01.066Z,1.08
2022-08-03T13:52:31.909Z,1.27
2022-08-03T13:55:00.144Z,0.98
2022-08-03T13:58:04.380Z,0.98
2022-08-03T14:00:26.257Z,1.02
2022-08-03T14:02:58.448Z,1.15
2022-08-03T14:05:32.011Z,1.25
2022-08-03T14:08:03.992Z,0.98
2022-08-03T14:10:42.130Z,0.95
2022-08-03T14:13:11.886Z,0.90
2022-08-03T14:15:39.317Z,1.48
2022-08-03T14:18:15.472Z,1.02
2022-08-03T14:20:49.090Z,1.05
2022-08-03T14:23:17.934Z,1.05
2022-08-03T14:25:52.491Z,1.08
2022-08-03T14:28:23.080Z,0.98
2022-08-03T14:30:52.166Z,1.20
2022-08-03T14:33:22.387Z,0.80
2022-08-03T14:35:50.338Z,1.38
2022-08-03T14:38:18.114Z,0.90
2022-08-03T14:40:46.290Z,0.70
2022-08-03T14:43:14.018Z,0.70
2022-08-03T14:45:41.535Z,1.15
2022-08-03T14:50:33.381Z,0.82
2022-08-03T14:50:56.774Z,0.77
2022-08-03T14:53:24.465Z,0.75
2022-08-03T14:55:53.238Z,0.90
2022-08-03T14:58:23.378Z,1.08
2022-08-03T15:00:52.296Z,1.00
2022-08-03T15:03:23.552Z,1.02
2022-08-03T15:05:53.648Z,1.10
2022-08-03T15:08:21.553Z,1.08
2022-08-03T15:10:49.388Z,1.08
2022-08-03T15:13:17.404Z,1.02
2022-08-03T15:15:45.074Z,0.82
2022-08-03T15:18:12.324Z,1.27
2022-08-03T15:20:45.047Z,0.70
2022-08-03T15:23:14.501Z,1.13
2022-08-03T15:26:31.752Z,1.33
2022-08-03T15:28:30.604Z,0.95
2022-08-03T15:30:57.790Z,1.17
2022-08-03T15:33:25.415Z,0.98
2022-08-03T15:35:53.369Z,1.30
2022-08-03T15:38:26.253Z,1.00
2022-08-03T15:40:54.920Z,1.00
2022-08-03T15:43:23.073Z,1.08
2022-08-03T15:46:19.113Z,0.98
2022-08-03T15:48:37.710Z,0.85
2022-08-03T15:51:05.519Z,1.25
2022-08-03T15:53:33.724Z,0.75
2022-08-03T15:56:05.178Z,0.93
2022-08-03T15:59:10.430Z,1.05
